• Join FlightAware (Why Join?)
  • Login
  • US Flag 
12:44AM EDT


 

Airport Tracker/Info


-or-


 

Live Flight TrackerFlight Track Log ✈ EMD27 ✈ 03-May-2013 ✈ KPDK - KBYL

Flight Track Log - Related Links

Times and Time Zones

All times are in EDT time to prevent confusion due to time zone crossing. See the EMD27 flight status page for this flight to view local times or setup timezone preferences in your user account.

Time Position Orientation Groundspeed Altitude Reporting Facility
EDT Latitude Longitude Course Direction KTS MPH feet Rate Location/Type
04:25AM 33.8500 -84.3167 North 142 163 2,000  Level Atlanta TRACON
04:26AM 33.8833 -84.3500 320° Northwest 135 155 3,000 960 Climbing Atlanta TRACON
04:27AM 33.9333 -84.3667 345° North 165 190 4,000 900 Climbing Atlanta TRACON
04:28AM 33.9667 -84.3833 337° Northwest 173 199 4,900 900 Climbing Atlanta TRACON
04:29AM 34.0167 -84.3833 360° North 184 212 5,900 960 Climbing Atlanta TRACON
04:31AM 34.1586 -84.3000 North  Level FlightAware Approximate
04:31AM 34.1089 -84.4050 349° North 200 230 7,600  Level Atlanta Center
04:32AM 34.1569 -84.4128 352° North 185 213 8,400 840 Climbing Atlanta Center
04:33AM 34.2050 -84.4081 North 175 201 9,300 840 Climbing Atlanta Center
04:34AM 34.2550 -84.4058 North 175 201 10,100 960 Climbing Atlanta Center
04:35AM 34.3050 -84.4008 North 175 201 11,300 1,080 Climbing Atlanta Center
04:36AM 34.3553 -84.3961 North 180 207 12,300 960 Climbing Atlanta Center
04:37AM 34.4053 -84.3914 North 180 207 13,300 900 Climbing Atlanta Center
04:38AM 34.4553 -84.3889 North 180 207 14,200 720 Climbing Atlanta Center
04:39AM 34.5075 -84.3842 North 185 213 14,800 600 Climbing Atlanta Center
04:40AM 34.5639 -84.3792 North 192 221 15,500 600 Climbing Atlanta Center
04:41AM 34.6139 -84.3744 North 198 228 16,000 600 Climbing Atlanta Center
04:42AM 34.6725 -84.3722 North 198 228 16,700 480 Climbing Atlanta Center
04:43AM 34.7331 -84.3675 North 198 228 17,000 120 Climbing Atlanta Center
04:44AM 34.7978 -84.3625 North 222 255 17,000  Level Atlanta Center
04:45AM 34.8667 -84.3578 North 238 274 17,000  Level Atlanta Center
04:46AM 34.9356 -84.3503 North 238 274 17,000  Level Atlanta Center
04:47AM 35.0044 -84.3456 North 238 274 17,000  Level Atlanta Center
04:48AM 35.0733 -84.3408 North 238 274 17,000  Level Atlanta Center
04:49AM 35.1442 -84.3358 North 238 274 17,000  Level Atlanta Center
04:50AM 35.2108 -84.3286 North 243 280 17,000  Level Atlanta Center
04:51AM 35.2797 -84.3236 North 243 280 17,000  Level Atlanta Center
04:52AM 35.3508 -84.3164 North 243 280 17,000  Level Atlanta Center
04:53AM 35.4217 -84.3139 North 243 280 17,000  Level Atlanta Center
04:54AM 35.4906 -84.3067 North 248 285 17,000  Level Atlanta Center
04:55AM 35.5636 -84.3017 North 253 291 17,000  Level Atlanta Center
04:56AM 35.6344 -84.2942 North 253 291 17,000  Level Atlanta Center
04:57AM 35.7014 -84.2919 North 253 291 17,000  Level Atlanta Center
04:58AM 35.7703 -84.2844 North 253 291 17,000 -180 Level Atlanta Center
04:59AM 35.8369 -84.2794 North 253 291 16,700 -840 Descending Atlanta Center
05:00AM 35.9142 -84.2747 North 253 291 15,400 -1,320 Descending Atlanta Center
05:01AM 35.9933 -84.2672 North 272 313 14,100 -1,320 Descending Atlanta Center
05:03AM 36.1197 -84.2556 North 288 331 12,100 -1,320 Descending Indianapolis Center
05:04AM 36.1928 -84.2486 North 269 310 10,800 -1,380 Descending Indianapolis Center
05:05AM 36.2636 -84.2436 North 258 297 9,300 -1,440 Descending Indianapolis Center
05:06AM 36.3347 -84.2372 North 257 296 7,900 -1,140 Descending Indianapolis Center
05:07AM 36.4044 -84.2322 North 253 291 7,100 -480 Descending Indianapolis Center
05:08AM 36.4669 -84.2269 North 237 273 7,000 -60 Descending Indianapolis Center
05:09AM 36.5261 -84.2222 North 214 246 7,000 -600 Level Indianapolis Center
05:10AM 36.5969 -84.2161 North 215 247 5,900 -1,260 Descending Indianapolis Center
05:11AM 36.6611 -84.2094 North 226 260 4,500 -1,080 Descending Indianapolis Center
05:12AM 36.7133 -84.2006 North 191 220 3,800 -780 Descending Indianapolis Center
05:13AM 36.7622 -84.1900 10° North 176 203 3,000 -840 Descending Indianapolis Center